Terminal Aerodrome Forecast
Issued by NWS

Home | Current Version | Previous Version | Text Only | Print | Product List | Glossary On
Versions: 1 2 3 4 5 6 7 8 9 10 11 12 13 14 15 16 17 18 19 20 21 22 23 24 25
000
FTUS45 KVEF 230539
TAFLAS
TAF
KLAS 230539Z 2306/2406 22013G22KT P6SM SCT100 BKN200
     FM230900 26010KT P6SM FEW100 BKN200
     FM231600 32015G22KT P6SM SCT060 BKN100
     FM232000 30015G22KT P6SM SCT100
     FM240300 25011KT P6SM FEW100=

USA.gov is the U.S. government's official web portal to all federal, state and local government web resources and services.